Forside
METAR-TAF:

METAR-TAF

Lufthavne :

Deauville, Frankrig

Breddekreds: 49-21-55N, længdekreds: 000-09-16E, højde: 146 m

Aktuelle vejr

Denne rapport blev lavet for 38 minutter siden, kl. 02:30 UTC
Vind 3 kt fra vest
Temperatur 8°C
Fugtighed 100%
Tryk 1034 hPa
Sigt: 1200 m

METAR: LFRG 250230Z AUTO 26003KT 6000 1200 R30/P2000 NSC 08/08 Q1034

Tid: 05:08 (03:08 UTC)


TAF: fraværende

Vejrobservationer og prognoser fra mere end 4000 lufthavne (METAR og TAF).

De gule og røde prikker repræsenterer de meteorologiske stationer.

Flyt musen over at se navnet på stationen.

Så klik over at se vejr observationer og prognoser.

At skifte det kort: Klik på de grønne knapper med et sort kors for at zoome ind; på den grønne knap med en bindestreg for at zoome ud; eller på de grønne pile for tilstødende kort.


METAR-TAF: